Time;durP1;ratioP1;P1;durP2;ratioP2;P2;SDS_P1;SDS_P2;PMS_P1;PMS_P2;Temp;Humidity;BMP_temperature;BMP_pressure;BME280_temperature;BME280_humidity;BME280_pressure;Samples;Min_cycle;Max_cycle;Signal;HPM_P1;HPM_P2
2022/09/26 00:01:25;;;;;;;3.33;1.23;;;16.30;99.90;;;;;;5055885;28;20393;-66
2022/09/26 00:03:57;;;;;;;4.88;1.08;;;16.20;1.00;;;;;;5055634;28;20047;-65
2022/09/26 00:06:23;;;;;;;3.83;1.15;;;16.10;1.00;;;;;;5070255;28;20048;-65
2022/09/26 00:08:49;;;;;;;5.78;1.23;;;16.10;1.00;;;;;;5054037;28;20033;-66
2022/09/26 00:11:19;;;;;;;4.40;1.20;;;16.20;61.70;;;;;;5070359;28;20544;-65
2022/09/26 00:13:45;;;;;;;6.75;1.40;;;16.20;98.20;;;;;;5069252;28;20090;-65
2022/09/26 00:16:12;;;;;;;4.78;1.60;;;16.00;99.90;;;;;;5061611;28;20033;-65
2022/09/26 00:18:38;;;;;;;3.03;1.20;;;16.10;1.00;;;;;;5049709;28;20040;-65
2022/09/26 00:21:12;;;;;;;2.92;1.20;;;16.00;82.60;;;;;;5067503;28;20040;-65
2022/09/26 00:23:39;;;;;;;3.30;1.30;;;16.10;99.90;;;;;;5071225;28;20148;-65
2022/09/26 00:26:05;;;;;;;4.80;1.40;;;16.00;1.00;;;;;;5070804;28;20037;-65
2022/09/26 00:28:31;;;;;;;3.38;1.33;;;16.10;99.90;;;;;;5055259;28;20491;-65
2022/09/26 00:31:01;;;;;;;6.75;1.92;;;16.10;60.20;;;;;;5059992;28;20505;-65
2022/09/26 00:33:26;;;;;;;5.95;1.60;;;16.20;1.00;;;;;;5050766;28;20128;-66
2022/09/26 00:35:53;;;;;;;7.68;1.60;;;16.30;99.90;;;;;;5053652;28;20120;-65
2022/09/26 00:38:19;;;;;;;10.30;1.90;;;16.40;99.90;;;;;;5063250;28;20458;-65
2022/09/26 00:40:46;;;;;;;8.25;2.00;;;16.30;1.00;;;;;;5072362;28;20083;-65
2022/09/26 00:43:30;;;;;;;5.43;1.65;;;16.40;99.90;;;;;;5072436;28;20043;-65
2022/09/26 00:46:06;;;;;;;14.10;1.65;;;16.20;1.00;;;;;;5062720;28;20719;-65
2022/09/26 00:48:33;;;;;;;;;;;16.30;99.90;;;;;;5061142;28;20072;-65
2022/09/26 00:50:59;;;;;;;9.48;1.88;;;16.20;1.00;;;;;;5068022;28;19923;-65
2022/09/26 00:53:32;;;;;;;5.75;1.73;;;16.20;1.00;;;;;;5074480;28;20037;-66
2022/09/26 00:56:06;;;;;;;5.10;1.70;;;16.20;99.90;;;;;;5070912;28;20147;-65
2022/09/26 00:58:37;;;;;;;8.75;2.15;;;16.20;1.00;;;;;;5073011;28;20072;-65
2022/09/26 01:01:03;;;;;;;12.85;1.75;;;16.40;1.00;;;;;;5057538;28;20032;-65
2022/09/26 01:03:31;;;;;;;6.88;2.10;;;16.10;99.90;;;;;;5054216;28;20037;-65
2022/09/26 01:05:59;;;;;;;6.63;1.67;;;16.30;99.90;;;;;;5054267;28;20048;-65
2022/09/26 01:08:45;;;;;;;10.82;1.75;;;16.00;99.90;;;;;;5054190;28;20052;-65
2022/09/26 01:11:13;;;;;;;14.80;2.10;;;16.20;99.90;;;;;;5067957;28;20060;-65
2022/09/26 01:13:40;;;;;;;11.90;1.95;;;16.00;99.90;;;;;;5074104;28;20413;-65
2022/09/26 01:16:06;;;;;;;9.35;2.30;;;16.00;99.90;;;;;;5055144;28;20049;-65
2022/09/26 01:18:32;;;;;;;8.55;1.80;;;16.20;99.90;;;;;;5054033;28;20037;-65
2022/09/26 01:21:13;;;;;;;8.52;1.90;;;15.80;99.90;;;;;;5068036;28;20089;-65
2022/09/26 01:24:00;;;;;;;8.98;1.90;;;15.70;99.90;;;;;;5071146;28;20052;-65
2022/09/26 01:26:57;;;;;;;12.88;4.63;;;15.70;99.90;;;;;;5055228;28;20089;-65
2022/09/26 01:29:56;;;;;;;9.82;2.15;;;15.50;99.90;;;;;;5052901;28;20037;-65
2022/09/26 01:32:49;;;;;;;11.30;2.10;;;15.40;99.90;;;;;;5073984;28;20047;-65
2022/09/26 01:35:23;;;;;;;10.57;2.22;;;15.60;99.90;;;;;;5066809;28;20049;-65
2022/09/26 01:38:09;;;;;;;6.47;1.90;;;15.60;99.90;;;;;;5053963;28;20521;-65
2022/09/26 01:40:55;;;;;;;10.07;2.30;;;15.40;99.90;;;;;;5071481;28;20044;-65
2022/09/26 01:43:57;;;;;;;8.15;2.28;;;15.20;99.90;;;;;;5055912;28;20041;-65
2022/09/26 01:46:32;;;;;;;5.50;1.92;;;15.30;99.90;;;;;;5046994;28;20088;-65
2022/09/26 01:49:10;;;;;;;5.53;2.53;;;15.40;99.90;;;;;;5053433;28;20037;-65
2022/09/26 01:52:07;;;;;;;13.45;2.50;;;15.10;99.90;;;;;;5070128;28;20093;-65
2022/09/26 01:54:54;;;;;;;11.82;2.20;;;15.20;99.90;;;;;;5066814;28;20465;-65
2022/09/26 01:57:29;;;;;;;5.25;2.13;;;15.40;99.90;;;;;;5054682;28;20037;-64
2022/09/26 02:00:00;;;;;;;14.00;2.33;;;15.10;99.90;;;;;;5051809;28;20121;-65
2022/09/26 02:02:30;;;;;;;5.63;2.22;;;15.40;99.90;;;;;;5060892;28;20402;-65
2022/09/26 02:05:02;;;;;;;10.95;2.35;;;15.20;99.90;;;;;;5064922;28;20098;-65
2022/09/26 02:07:40;;;;;;;6.88;2.00;;;15.20;99.90;;;;;;5053101;28;20043;-65
2022/09/26 02:10:15;;;;;;;47.50;3.75;;;15.50;99.90;;;;;;5052876;28;20518;-65
2022/09/26 02:12:48;;;;;;;7.85;1.83;;;15.30;99.90;;;;;;5053070;28;20124;-65
2022/09/26 02:15:17;;;;;;;5.90;1.83;;;15.30;99.90;;;;;;5052784;28;20120;-66
2022/09/26 02:17:51;;;;;;;6.43;1.98;;;15.40;99.90;;;;;;5051602;28;20045;-65
2022/09/26 02:20:31;;;;;;;7.10;1.88;;;15.50;99.90;;;;;;5064409;28;20075;-65
2022/09/26 02:22:58;;;;;;;11.45;2.20;;;15.20;99.90;;;;;;5071176;28;20067;-65
2022/09/26 02:25:24;;;;;;;6.30;2.35;;;15.40;99.90;;;;;;5066937;28;20036;-65
2022/09/26 02:27:49;;;;;;;8.82;2.30;;;14.90;99.90;;;;;;5071235;28;20383;-65
2022/09/26 02:30:15;;;;;;;6.22;2.00;;;14.90;99.90;;;;;;5072344;28;20079;-65
2022/09/26 02:32:41;;;;;;;7.40;2.33;;;15.30;99.90;;;;;;5070178;28;20158;-65
2022/09/26 02:37:52;;;;;;;5.68;1.98;;;14.80;99.90;;;;;;5052528;28;20048;-65
2022/09/26 02:40:23;;;;;;;9.00;2.03;;;15.20;99.90;;;;;;5051965;28;20115;-64
2022/09/26 02:42:56;;;;;;;5.50;1.80;;;15.10;99.90;;;;;;5061865;28;20032;-65
2022/09/26 02:45:46;;;;;;;6.07;2.05;;;14.90;99.90;;;;;;5072311;28;20115;-65
2022/09/26 02:48:22;;;;;;;4.70;1.83;;;14.90;99.90;;;;;;5071455;28;20044;-64
2022/09/26 02:51:14;;;;;;;6.80;2.00;;;15.40;99.90;;;;;;5064657;28;20521;-65
2022/09/26 02:54:13;;;;;;;3.55;1.70;;;15.40;99.90;;;;;;5067861;28;20040;-65
2022/09/26 02:57:03;;;;;;;4.78;2.42;;;15.30;99.90;;;;;;5050654;28;20406;-65
2022/09/26 03:00:07;;;;;;;4.38;1.73;;;15.40;99.90;;;;;;5058588;28;20040;-65
2022/09/26 03:02:54;;;;;;;4.35;1.52;;;15.40;99.90;;;;;;5062187;28;20157;-65
2022/09/26 03:05:23;;;;;;;10.48;2.00;;;14.90;99.90;;;;;;5065990;28;20056;-65
2022/09/26 03:08:00;;;;;;;4.63;2.00;;;15.40;99.90;;;;;;5050867;28;20048;-65
2022/09/26 03:10:28;;;;;;;4.63;1.70;;;15.30;99.90;;;;;;5053738;28;20166;-65
2022/09/26 03:12:59;;;;;;;6.78;2.00;;;15.40;99.90;;;;;;5071908;28;20048;-65
2022/09/26 03:15:26;;;;;;;7.35;2.13;;;15.40;99.90;;;;;;5070274;28;20516;-64
2022/09/26 03:17:55;;;;;;;5.95;2.03;;;14.80;99.90;;;;;;5070192;28;20489;-65
2022/09/26 03:20:21;;;;;;;7.43;2.20;;;14.90;99.90;;;;;;5069822;28;20040;-65
2022/09/26 03:22:48;;;;;;;5.05;1.73;;;15.20;99.90;;;;;;5070228;28;20101;-64
2022/09/26 03:25:17;;;;;;;2.72;1.75;;;15.30;99.90;;;;;;5058828;28;20089;-65
2022/09/26 03:27:43;;;;;;;3.83;1.80;;;14.90;99.90;;;;;;5051780;28;20494;-65
2022/09/26 03:30:14;;;;;;;4.95;2.05;;;14.90;99.90;;;;;;5052137;28;20082;-65
2022/09/26 03:32:40;;;;;;;4.57;1.63;;;15.00;99.90;;;;;;5064966;28;20049;-64
2022/09/26 03:35:07;;;;;;;9.25;2.00;;;14.90;99.90;;;;;;5060460;28;20486;-64
2022/09/26 03:37:36;;;;;;;4.78;1.50;;;14.90;99.90;;;;;;5063049;28;20045;-64
2022/09/26 03:40:08;;;;;;;5.72;1.90;;;15.40;99.90;;;;;;5051404;28;20087;-65
2022/09/26 03:42:34;;;;;;;4.18;1.45;;;15.00;99.90;;;;;;5052969;28;20041;-65
2022/09/26 03:45:01;;;;;;;4.47;1.70;;;14.90;99.90;;;;;;5058660;28;20055;-65
2022/09/26 03:47:27;;;;;;;6.32;1.83;;;15.40;99.90;;;;;;5067739;28;20033;-65
2022/09/26 03:49:53;;;;;;;8.07;1.85;;;15.40;99.90;;;;;;5049952;28;20053;-65
2022/09/26 03:52:19;;;;;;;6.78;1.95;;;15.00;99.90;;;;;;5068779;28;20090;-65
2022/09/26 03:54:45;;;;;;;5.57;2.13;;;15.40;99.90;;;;;;5062969;28;20512;-65
2022/09/26 03:57:11;;;;;;;3.58;1.50;;;14.80;99.90;;;;;;5070519;28;20037;-65
2022/09/26 03:59:37;;;;;;;2.63;1.20;;;15.10;99.90;;;;;;5070128;28;20059;-65
2022/09/26 04:02:04;;;;;;;3.90;1.80;;;15.40;99.90;;;;;;5070396;28;20394;-65
2022/09/26 04:04:31;;;;;;;3.53;1.73;;;15.20;99.90;;;;;;5068788;28;20482;-65
2022/09/26 04:06:56;;;;;;;5.03;1.38;;;15.50;99.90;;;;;;5071485;28;20032;-65
2022/09/26 04:09:23;;;;;;;4.32;1.42;;;15.50;99.90;;;;;;5061128;28;20043;-66
2022/09/26 04:11:49;;;;;;;2.70;1.48;;;14.80;99.90;;;;;;5055088;28;20048;-65
2022/09/26 04:14:16;;;;;;;6.53;2.00;;;15.20;99.90;;;;;;5062496;28;20044;-65
2022/09/26 04:16:42;;;;;;;3.05;1.40;;;15.20;99.90;;;;;;5053791;28;20041;-65
2022/09/26 04:19:07;;;;;;;6.72;1.90;;;15.40;99.90;;;;;;5054996;28;20039;-65
2022/09/26 04:21:34;;;;;;;5.68;1.63;;;14.70;99.90;;;;;;5055233;28;20040;-66
2022/09/26 04:24:00;;;;;;;5.40;1.80;;;15.40;99.90;;;;;;5066294;28;20041;-65
2022/09/26 04:26:26;;;;;;;4.60;2.08;;;15.50;99.90;;;;;;5063689;28;20049;-65
2022/09/26 04:28:55;;;;;;;3.63;1.60;;;14.70;99.90;;;;;;5072373;28;20452;-65
2022/09/26 04:31:22;;;;;;;5.63;1.83;;;15.40;99.90;;;;;;5074675;28;20043;-65
2022/09/26 04:33:48;;;;;;;4.15;2.00;;;15.40;99.90;;;;;;5074641;28;20041;-65
2022/09/26 04:36:15;;;;;;;8.82;2.33;;;14.70;99.90;;;;;;5071303;28;20104;-65
2022/09/26 04:38:40;;;;;;;2.30;1.40;;;14.70;99.90;;;;;;5061843;28;20534;-65
2022/09/26 04:41:09;;;;;;;4.28;1.95;;;14.80;99.90;;;;;;5073132;28;20115;-66
2022/09/26 04:43:35;;;;;;;4.07;1.67;;;15.40;99.90;;;;;;5049078;28;20052;-65
2022/09/26 04:46:04;;;;;;;6.22;1.98;;;14.90;99.90;;;;;;5052847;28;20495;-64
2022/09/26 04:48:30;;;;;;;5.38;2.08;;;15.30;99.90;;;;;;5064989;28;20115;-65
2022/09/26 04:50:55;;;;;;;4.55;1.90;;;15.20;99.90;;;;;;5073237;28;20501;-65
2022/09/26 04:53:22;;;;;;;5.57;2.10;;;15.50;99.90;;;;;;5066546;28;20083;-65
2022/09/26 04:55:48;;;;;;;3.80;1.88;;;16.00;99.90;;;;;;5071858;28;20084;-65
2022/09/26 04:58:15;;;;;;;5.80;1.73;;;14.70;99.90;;;;;;5074409;28;20532;-65
2022/09/26 05:00:49;;;;;;;5.95;1.70;;;14.90;99.90;;;;;;5074058;28;20040;-65
2022/09/26 05:03:16;;;;;;;16.10;2.35;;;15.50;99.90;;;;;;5071940;28;20044;-66
2022/09/26 05:05:44;;;;;;;10.52;2.20;;;15.10;99.90;;;;;;5064605;28;20504;-66
2022/09/26 05:08:10;;;;;;;4.30;1.95;;;15.40;99.90;;;;;;5042248;28;20405;-66
2022/09/26 05:10:37;;;;;;;12.73;2.50;;;15.20;99.90;;;;;;5061019;28;20056;-66
2022/09/26 05:13:03;;;;;;;3.95;1.50;;;15.50;99.90;;;;;;5050935;28;20146;-66
2022/09/26 05:15:29;;;;;;;9.63;2.00;;;14.30;99.90;;;;;;5056035;28;20134;-66
2022/09/26 05:17:59;;;;;;;4.80;1.60;;;15.40;99.90;;;;;;5043120;28;20041;-65
2022/09/26 05:20:30;;;;;;;4.25;1.75;;;15.20;99.90;;;;;;5053347;28;20048;-65
2022/09/26 05:23:04;;;;;;;6.68;1.90;;;15.00;99.90;;;;;;5057470;28;20040;-66
2022/09/26 05:28:18;;;;;;;8.70;1.83;;;14.80;99.90;;;;;;5060976;28;20517;-65
2022/09/26 05:30:44;;;;;;;6.68;2.22;;;14.40;99.90;;;;;;5055336;28;20057;-66
2022/09/26 05:33:11;;;;;;;7.40;2.15;;;15.20;99.90;;;;;;5057661;28;20048;-65
2022/09/26 05:35:38;;;;;;;8.65;1.77;;;14.30;99.90;;;;;;5057796;28;20149;-65
2022/09/26 05:38:04;;;;;;;6.68;2.22;;;15.20;99.90;;;;;;5059614;28;20032;-65
2022/09/26 05:43:14;;;;;;;4.03;2.10;;;14.50;99.90;;;;;;5059401;28;20113;-65
2022/09/26 05:45:41;;;;;;;4.93;2.17;;;14.60;99.90;;;;;;5057208;28;20048;-65
2022/09/26 05:48:07;;;;;;;5.47;2.30;;;14.50;99.90;;;;;;5054033;28;20047;-66
2022/09/26 05:50:33;;;;;;;5.10;2.17;;;15.20;99.90;;;;;;5051038;28;20049;-65
2022/09/26 05:53:00;;;;;;;7.88;3.03;;;14.40;99.90;;;;;;5063700;28;20041;-66
2022/09/26 05:55:27;;;;;;;6.30;2.45;;;15.30;99.90;;;;;;5058160;28;20049;-65
2022/09/26 05:57:54;;;;;;;3.72;1.90;;;15.20;99.90;;;;;;5035124;28;20422;-65
2022/09/26 06:00:20;;;;;;;4.18;2.08;;;15.10;99.90;;;;;;5057255;28;20071;-65
2022/09/26 06:02:52;;;;;;;7.38;2.20;;;14.40;99.90;;;;;;5059791;28;20486;-65
2022/09/26 06:05:18;;;;;;;5.18;2.08;;;15.00;99.90;;;;;;5062310;28;20464;-66
2022/09/26 06:07:44;;;;;;;9.13;2.25;;;14.60;99.90;;;;;;5058170;28;20069;-66
2022/09/26 06:10:10;;;;;;;4.03;2.17;;;15.40;99.90;;;;;;5051199;28;20057;-65
2022/09/26 06:12:35;;;;;;;5.90;2.05;;;15.40;99.90;;;;;;5058017;28;20041;-65
2022/09/26 06:15:01;;;;;;;4.88;2.08;;;14.70;99.90;;;;;;5066113;28;20052;-65
2022/09/26 06:17:26;;;;;;;6.25;2.20;;;15.40;99.90;;;;;;5060025;28;20073;-66
2022/09/26 06:19:52;;;;;;;8.48;2.13;;;15.40;99.90;;;;;;5051505;28;20045;-66
2022/09/26 06:22:17;;;;;;;6.93;2.10;;;14.90;99.90;;;;;;5062401;28;20036;-65
2022/09/26 06:24:43;;;;;;;7.20;2.30;;;15.40;99.90;;;;;;5056523;28;20079;-64
2022/09/26 06:27:08;;;;;;;6.20;2.22;;;15.30;99.90;;;;;;5061382;28;20072;-65
2022/09/26 06:29:34;;;;;;;6.10;1.95;;;14.90;99.90;;;;;;5072621;28;20052;-64
2022/09/26 06:32:00;;;;;;;6.45;3.15;;;15.50;99.90;;;;;;5054912;28;20045;-64
2022/09/26 06:34:25;;;;;;;3.97;1.98;;;15.40;99.90;;;;;;5053419;28;20041;-66
2022/09/26 06:36:51;;;;;;;5.20;2.13;;;15.10;99.90;;;;;;5053703;28;20033;-65
2022/09/26 06:39:16;;;;;;;3.22;1.77;;;15.50;99.90;;;;;;5053488;28;20165;-66
2022/09/26 06:41:42;;;;;;;7.38;2.40;;;15.40;99.90;;;;;;5057235;28;20124;-65
2022/09/26 06:44:08;;;;;;;7.53;2.10;;;15.40;99.90;;;;;;5060202;28;20103;-66
2022/09/26 06:46:34;;;;;;;5.28;2.20;;;15.40;99.90;;;;;;5063680;28;20049;-65
2022/09/26 06:48:59;;;;;;;6.30;2.47;;;15.20;99.90;;;;;;5063040;28;20036;-66
2022/09/26 06:51:25;;;;;;;8.88;2.40;;;15.00;99.90;;;;;;5055481;28;20052;-65
2022/09/26 06:53:50;;;;;;;4.57;2.00;;;15.40;99.90;;;;;;5067826;28;20089;-65
2022/09/26 06:56:17;;;;;;;5.47;2.05;;;15.40;99.90;;;;;;5063737;28;20041;-66
2022/09/26 06:58:42;;;;;;;5.20;2.03;;;15.20;99.90;;;;;;5061392;28;20523;-65
2022/09/26 07:01:09;;;;;;;7.00;2.10;;;15.80;99.90;;;;;;5070344;28;20037;-66
2022/09/26 07:03:35;;;;;;;7.43;1.80;;;15.00;99.90;;;;;;5071923;28;20033;-65
2022/09/26 07:06:02;;;;;;;8.73;2.00;;;15.40;99.90;;;;;;5070545;28;20043;-66
2022/09/26 07:08:27;;;;;;;2.85;1.40;;;15.10;99.90;;;;;;5046280;28;20045;-66
2022/09/26 07:10:59;;;;;;;6.60;2.22;;;15.20;99.90;;;;;;5060545;28;20053;-65
2022/09/26 07:13:25;;;;;;;4.45;1.77;;;15.10;99.90;;;;;;5053847;28;20037;-65
2022/09/26 07:15:50;;;;;;;14.68;2.40;;;15.30;99.90;;;;;;5054750;28;20489;-66
2022/09/26 07:18:16;;;;;;;6.72;1.75;;;15.60;99.90;;;;;;5059978;28;20044;-65
2022/09/26 07:20:45;;;;;;;10.93;2.30;;;15.50;99.90;;;;;;5060202;28;20486;-66
2022/09/26 07:23:11;;;;;;;5.40;1.83;;;15.90;99.90;;;;;;5061207;28;20494;-65
2022/09/26 07:25:38;;;;;;;7.07;1.98;;;15.30;99.90;;;;;;5072373;28;20414;-65
2022/09/26 07:28:06;;;;;;;6.78;2.20;;;15.10;99.90;;;;;;5059915;28;20082;-66
2022/09/26 07:30:31;;;;;;;5.72;2.00;;;15.60;99.90;;;;;;5063766;28;20029;-65
2022/09/26 07:33:01;;;;;;;6.15;2.17;;;15.30;99.90;;;;;;5066244;28;20482;-65
2022/09/26 07:35:28;;;;;;;4.32;2.38;;;15.10;99.90;;;;;;5066439;28;20343;-66
2022/09/26 07:37:53;;;;;;;4.38;1.92;;;15.60;99.90;;;;;;5051336;28;20398;-65
2022/09/26 07:40:19;;;;;;;10.68;2.78;;;15.50;99.90;;;;;;5052609;28;20044;-65
2022/09/26 07:42:45;;;;;;;6.70;2.53;;;15.30;99.90;;;;;;5060481;28;20073;-65
2022/09/26 07:45:11;;;;;;;5.28;2.33;;;15.50;99.90;;;;;;5046606;28;20071;-65
2022/09/26 07:50:21;;;;;;;11.38;3.58;;;15.40;99.90;;;;;;5053562;28;20049;-65
2022/09/26 07:52:49;;;;;;;4.30;1.85;;;15.70;99.90;;;;;;5057889;28;20037;-65
2022/09/26 07:55:17;;;;;;;9.80;2.28;;;15.70;99.90;;;;;;5059128;28;20037;-65
2022/09/26 07:57:43;;;;;;;6.57;2.55;;;15.50;99.90;;;;;;5055700;28;20517;-65
2022/09/26 08:00:12;;;;;;;6.10;2.00;;;15.80;99.90;;;;;;5058712;28;20028;-66
2022/09/26 08:02:41;;;;;;;5.05;1.70;;;15.50;99.90;;;;;;5064657;28;20094;-66
2022/09/26 08:05:08;;;;;;;3.95;2.05;;;15.80;99.90;;;;;;5050016;28;20057;-66
2022/09/26 08:07:35;;;;;;;8.73;2.20;;;15.30;99.90;;;;;;5063944;28;20513;-66
2022/09/26 08:10:02;;;;;;;4.32;2.08;;;15.80;99.90;;;;;;5055080;28;20049;-65
2022/09/26 08:12:36;;;;;;;9.07;2.33;;;15.10;99.90;;;;;;5058208;28;20040;-66
2022/09/26 08:15:05;;;;;;;2.90;2.00;;;15.40;99.90;;;;;;5049119;28;20041;-66
2022/09/26 08:17:31;;;;;;;5.80;2.30;;;14.90;99.90;;;;;;5054638;28;20390;-66
2022/09/26 08:20:00;;;;;;;6.10;2.50;;;14.70;99.90;;;;;;5054534;28;20037;-66
2022/09/26 08:22:27;;;;;;;9.50;2.67;;;14.30;99.90;;;;;;5054974;28;20033;-65
2022/09/26 08:24:53;;;;;;;5.28;2.30;;;15.30;99.90;;;;;;5066446;28;20639;-66
2022/09/26 08:27:21;;;;;;;5.55;2.60;;;15.30;99.90;;;;;;5064184;28;20517;-68
2022/09/26 08:29:48;;;;;;;8.20;2.75;;;15.20;99.90;;;;;;5067128;28;20048;-66
2022/09/26 08:32:17;;;;;;;5.20;2.47;;;14.50;99.90;;;;;;5069503;28;20064;-67
2022/09/26 08:34:44;;;;;;;8.23;2.40;;;14.10;99.90;;;;;;5036460;28;20067;-65
2022/09/26 08:37:09;;;;;;;8.10;2.55;;;14.50;99.90;;;;;;5067605;28;20041;-65
2022/09/26 08:39:35;;;;;;;11.27;2.85;;;14.10;99.90;;;;;;5058594;28;20041;-65
2022/09/26 08:42:27;;;;;;;6.95;2.63;;;14.50;99.90;;;;;;5057676;28;20059;-66
2022/09/26 08:48:42;;;;;;;5.30;2.70;;;15.20;99.90;;;;;;5052114;28;20508;-65
2022/09/26 08:51:23;;;;;;;7.20;2.97;;;15.30;99.90;;;;;;5061437;28;20047;-65
2022/09/26 08:53:54;;;;;;;15.70;3.30;;;14.20;99.90;;;;;;5058169;28;20044;-65
2022/09/26 08:56:30;;;;;;;5.13;2.47;;;14.60;99.90;;;;;;5056104;28;20433;-65
2022/09/26 08:58:58;;;;;;;5.82;2.40;;;15.30;99.90;;;;;;5054049;28;20029;-66
2022/09/26 09:01:34;;;;;;;6.68;2.50;;;14.30;99.90;;;;;;5056063;28;20494;-67
2022/09/26 09:04:36;;;;;;;5.72;2.15;;;15.60;99.90;;;;;;5053610;28;20140;-66
2022/09/26 09:07:13;;;;;;;11.13;3.83;;;14.90;99.90;;;;;;5063901;28;20072;-67
2022/09/26 09:09:39;;;;;;;5.50;2.70;;;15.50;99.90;;;;;;5056532;28;20110;-65
2022/09/26 09:12:20;;;;;;;7.13;3.20;;;14.30;99.90;;;;;;5061546;28;20041;-65
2022/09/26 09:14:53;;;;;;;6.68;2.58;;;15.40;99.90;;;;;;5058422;28;20041;-66
2022/09/26 09:17:56;;;;;;;4.93;2.70;;;15.50;99.90;;;;;;5056918;28;20041;-66
2022/09/26 09:20:42;;;;;;;5.43;2.75;;;15.60;99.90;;;;;;5053813;28;20513;-64
2022/09/26 09:23:30;;;;;;;4.43;2.60;;;15.60;99.90;;;;;;5062314;28;20047;-66
2022/09/26 09:26:22;;;;;;;4.88;2.88;;;15.50;99.90;;;;;;5062991;28;20649;-65
2022/09/26 09:28:50;;;;;;;4.20;2.78;;;14.70;99.90;;;;;;5058440;28;20048;-65
2022/09/26 09:31:16;;;;;;;5.38;3.03;;;15.20;99.90;;;;;;5066132;28;20563;-65
2022/09/26 09:33:47;;;;;;;5.85;3.10;;;14.60;99.90;;;;;;5064825;28;20052;-66
2022/09/26 09:36:39;;;;;;;8.48;3.25;;;14.50;99.90;;;;;;5055282;28;20498;-66
2022/09/26 09:39:08;;;;;;;3.40;2.70;;;14.50;99.90;;;;;;5054436;28;20045;-66
2022/09/26 09:41:42;;;;;;;4.15;2.80;;;15.10;99.90;;;;;;5050290;28;20136;-67
2022/09/26 09:44:35;;;;;;;3.42;2.97;;;15.30;99.90;;;;;;5062720;28;20055;-65
2022/09/26 09:47:06;;;;;;;6.63;3.40;;;14.50;99.90;;;;;;5054134;28;20079;-66
2022/09/26 09:49:31;;;;;;;3.22;2.70;;;14.50;99.90;;;;;;5063732;28;20036;-64
2022/09/26 09:52:25;;;;;;;3.42;2.78;;;14.30;99.90;;;;;;5055709;28;20040;-66
2022/09/26 09:55:14;;;;;;;3.40;2.20;;;14.60;99.90;;;;;;5058140;28;20049;-67
2022/09/26 09:58:03;;;;;;;6.43;2.67;;;14.60;99.90;;;;;;5035636;28;20037;-65
2022/09/26 10:00:31;;;;;;;5.72;2.42;;;15.70;99.90;;;;;;5059144;28;20538;-66
2022/09/26 10:03:01;;;;;;;4.90;2.90;;;14.50;99.90;;;;;;5042027;28;20028;-66
2022/09/26 10:05:50;;;;;;;7.13;3.10;;;15.70;99.90;;;;;;5066266;28;20119;-65
2022/09/26 10:08:30;;;;;;;5.95;2.90;;;15.70;99.90;;;;;;5058647;28;20057;-66
2022/09/26 10:11:15;;;;;;;4.50;2.72;;;15.60;99.90;;;;;;5056822;28;20045;-65
2022/09/26 10:13:43;;;;;;;3.45;2.25;;;15.70;99.90;;;;;;5064119;28;20464;-65
2022/09/26 10:16:13;;;;;;;5.07;3.40;;;14.60;99.90;;;;;;5059253;28;20509;-65
2022/09/26 10:18:59;;;;;;;7.25;2.85;;;15.80;99.90;;;;;;5057924;28;20086;-66
2022/09/26 10:21:32;;;;;;;6.00;3.40;;;15.40;99.90;;;;;;5066425;28;20032;-65
2022/09/26 10:23:58;;;;;;;11.25;4.28;;;15.40;99.90;;;;;;5067407;28;20702;-67
2022/09/26 10:26:36;;;;;;;7.82;4.18;;;15.60;99.90;;;;;;5056535;28;20409;-65
2022/09/26 10:29:23;;;;;;;3.83;2.60;;;15.80;99.90;;;;;;5053195;28;20036;-65
2022/09/26 10:31:59;;;;;;;3.75;2.63;;;15.00;99.90;;;;;;5054827;28;20052;-65
2022/09/26 10:34:27;;;;;;;7.73;3.03;;;15.00;99.90;;;;;;5059355;28;20742;-66
2022/09/26 10:36:53;;;;;;;3.88;2.60;;;16.50;99.90;;;;;;5061510;28;20303;-66
2022/09/26 10:42:21;;;;;;;4.70;2.58;;;16.90;99.90;;;;;;5054756;28;20089;-65
2022/09/26 10:44:48;;;;;;;4.78;3.28;;;16.30;99.90;;;;;;5061093;28;20040;-65
2022/09/26 10:47:21;;;;;;;8.85;2.03;;;17.30;99.90;;;;;;5060015;28;20515;-66
2022/09/26 10:50:00;;;;;;;5.95;2.33;;;17.30;99.90;;;;;;5004453;28;20064;-66
2022/09/26 10:52:33;;;;;;;5.70;2.70;;;16.80;99.90;;;;;;4997918;28;20464;-66
2022/09/26 10:55:16;;;;;;;5.03;2.78;;;16.20;99.90;;;;;;5038632;28;20045;-66
2022/09/26 10:57:49;;;;;;;6.05;2.00;;;17.50;99.90;;;;;;5047171;28;20041;-66
2022/09/26 11:00:20;;;;;;;5.03;2.25;;;17.70;99.90;;;;;;5048466;28;20040;-66
2022/09/26 11:02:50;;;;;;;4.63;2.47;;;16.60;99.90;;;;;;5042883;28;20067;-66
2022/09/26 11:08:12;;;;;;;9.38;2.97;;;18.20;99.90;;;;;;5044130;28;20049;-66
2022/09/26 11:10:40;;;;;;;12.57;3.53;;;16.30;99.90;;;;;;5047392;28;20071;-66
2022/09/26 11:13:17;;;;;;;10.88;4.28;;;17.20;99.90;;;;;;5042417;28;20059;-66
2022/09/26 11:16:03;;;;;;;6.32;3.50;;;18.00;99.90;;;;;;5039593;28;20049;-66
2022/09/26 11:18:56;;;;;;;5.07;2.63;;;18.50;99.90;;;;;;5034940;28;20124;-67
2022/09/26 11:21:40;;;;;;;7.03;3.10;;;18.00;99.90;;;;;;5033793;28;20053;-66
2022/09/26 11:24:21;;;;;;;6.82;2.42;;;18.80;99.90;;;;;;5032793;28;20445;-67
2022/09/26 11:27:42;;;;;;;5.25;2.50;;;17.00;99.90;;;;;;5030761;28;20072;-66
2022/09/26 11:30:13;;;;;;;5.78;2.10;;;18.80;99.90;;;;;;5030645;28;20060;-66
2022/09/26 11:32:42;;;;;;;5.50;2.20;;;18.40;99.90;;;;;;5042377;28;20041;-66
2022/09/26 11:35:14;;;;;;;6.43;2.20;;;18.20;99.90;;;;;;5045461;28;20444;-66
2022/09/26 11:38:04;;;;;;;6.85;2.60;;;16.70;99.90;;;;;;5039079;28;20063;-67
2022/09/26 11:41:35;;;;;;;4.97;2.42;;;18.10;99.90;;;;;;5037821;28;20045;-67
2022/09/26 11:44:16;;;;;;;7.13;2.17;;;16.70;99.90;;;;;;5016778;28;20071;-66
2022/09/26 11:47:01;;;;;;;4.32;1.98;;;17.40;99.90;;;;;;5043906;28;20414;-66
2022/09/26 11:50:22;;;;;;;7.28;1.90;;;16.70;99.90;;;;;;5041900;28;20070;-66
2022/09/26 11:53:02;;;;;;;9.10;2.33;;;16.80;99.90;;;;;;5016230;28;20041;-66
2022/09/26 11:55:44;;;;;;;9.77;2.40;;;16.70;99.90;;;;;;5041441;28;20033;-67
2022/09/26 11:58:32;;;;;;;7.47;1.95;;;15.80;99.90;;;;;;5048167;28;20044;-66
2022/09/26 12:01:26;;;;;;;14.57;2.88;;;15.60;99.90;;;;;;5050025;28;20124;-66
2022/09/26 12:04:17;;;;;;;21.50;3.28;;;15.90;99.90;;;;;;5024069;28;20060;-67
2022/09/26 12:07:06;;;;;;;12.73;2.95;;;17.10;99.90;;;;;;5046040;28;20087;-66
2022/09/26 12:09:40;;;;;;;20.08;3.35;;;17.00;99.90;;;;;;5039505;28;20419;-67
2022/09/26 12:12:33;;;;;;;23.33;3.20;;;16.20;99.90;;;;;;5044057;28;20053;-67
2022/09/26 12:15:01;;;;;;;33.17;5.30;;;16.20;99.90;;;;;;5043661;28;20044;-67
2022/09/26 12:17:51;;;;;;;28.08;4.32;;;17.60;99.90;;;;;;5036967;28;20044;-66
2022/09/26 12:20:31;;;;;;;28.67;4.15;;;17.70;99.90;;;;;;5031159;28;20049;-67
2022/09/26 12:23:20;;;;;;;37.78;4.88;;;16.40;99.90;;;;;;5038872;28;20088;-67
2022/09/26 12:26:21;;;;;;;41.05;4.18;;;16.50;99.90;;;;;;5037814;28;20111;-66
2022/09/26 12:29:04;;;;;;;22.45;3.72;;;18.30;99.90;;;;;;5040752;28;20127;-66
2022/09/26 12:31:51;;;;;;;22.92;3.00;;;18.30;99.90;;;;;;5037115;28;20049;-67
2022/09/26 12:34:28;;;;;;;26.38;3.45;;;17.00;99.90;;;;;;5048372;28;20148;-66
2022/09/26 12:37:13;;;;;;;17.67;3.20;;;18.40;99.90;;;;;;5034509;28;20042;-66
2022/09/26 12:39:56;;;;;;;14.18;2.83;;;16.60;99.90;;;;;;5034454;28;20425;-66
2022/09/26 12:42:32;;;;;;;15.20;3.00;;;16.70;99.90;;;;;;5034836;28;20040;-67
2022/09/26 12:45:20;;;;;;;12.13;2.40;;;18.40;99.90;;;;;;5034977;28;20107;-68
2022/09/26 12:48:02;;;;;;;8.98;1.90;;;16.90;99.90;;;;;;5054652;28;20075;-67
2022/09/26 12:51:00;;;;;;;8.18;2.17;;;18.30;99.90;;;;;;5045190;28;20117;-66
2022/09/26 12:53:45;;;;;;;11.52;2.20;;;18.70;99.90;;;;;;5044888;28;20069;-67
2022/09/26 12:56:25;;;;;;;8.30;1.88;;;17.40;99.90;;;;;;5034497;28;20511;-67
2022/09/26 12:59:09;;;;;;;17.45;1.98;;;17.20;99.90;;;;;;5050273;28;20037;-67
2022/09/26 13:01:47;;;;;;;10.80;1.90;;;17.10;99.90;;;;;;5054146;28;20033;-67
2022/09/26 13:04:15;;;;;;;15.15;2.67;;;17.40;99.90;;;;;;5033293;28;20076;-66
2022/09/26 13:07:02;;;;;;;12.70;2.38;;;18.40;99.90;;;;;;5034554;28;20061;-67
2022/09/26 13:09:30;;;;;;;;;;;16.80;99.90;;;;;;5033318;28;20444;-66
2022/09/26 13:12:07;;;;;;;16.75;3.25;;;17.90;99.90;;;;;;5035333;28;19920;-67
2022/09/26 13:14:43;;;;;;;21.10;3.75;;;16.40;99.90;;;;;;5052529;28;20663;-67
2022/09/26 13:17:13;;;;;;;;;;;17.90;99.90;;;;;;5052769;28;20139;-66
2022/09/26 13:19:50;;;;;;;15.88;3.42;;;16.30;99.90;;;;;;5052711;28;19985;-66
2022/09/26 13:22:51;;;;;;;16.73;3.38;;;17.70;99.90;;;;;;5052633;28;20094;-67
2022/09/26 13:25:19;;;;;;;17.38;3.20;;;17.50;99.90;;;;;;5050252;28;20544;-67
2022/09/26 13:28:10;;;;;;;25.67;3.78;;;17.50;99.90;;;;;;5053125;28;20045;-67
2022/09/26 13:30:40;;;;;;;12.13;2.35;;;17.90;99.90;;;;;;5045362;28;20052;-67
2022/09/26 13:33:30;;;;;;;21.60;3.42;;;17.30;99.90;;;;;;5045941;28;20041;-67
2022/09/26 13:35:59;;;;;;;20.30;4.35;;;17.00;99.90;;;;;;5043276;28;20056;-67
2022/09/26 13:38:40;;;;;;;16.33;3.38;;;16.90;99.90;;;;;;5033305;28;20029;-67